Terminal Aerodrome Forecast
Issued by NWS Los Angeles, CA

Home | Current Version | Previous Version | Text Only | Print | Product List | Glossary On
Versions: 1 2 3 4 5 6 7 8 9 10 11 12 13 14 15 16 17 18 19 20 21 22 23 24 25 26 27 28
000
FTUS46 KLOX 241847 AAA
TAFSMX
TAF AMD
KSMX 241847Z 2419/2518 31005KT 6SM HZ SKC
     FM242000 30012KT P6SM SKC
     FM250400 VRB03KT P6SM SCT006
     FM250600 VRB03KT 3SM BR OVC004
     FM250900 VRB03KT 1/2SM FG VV001
     FM251400 VRB03KT 3SM BR OVC005
     FM251700 28005KT 6SM BR BKN010=

USA.gov is the U.S. government's official web portal to all federal, state and local government web resources and services.